Time;durP1;ratioP1;P1;durP2;ratioP2;P2;SDS_P1;SDS_P2;PMS_P1;PMS_P2;Temp;Humidity;BMP_temperature;BMP_pressure;BME280_temperature;BME280_humidity;BME280_pressure;Samples;Min_cycle;Max_cycle;Signal;HPM_P1;HPM_P2
2022/01/07 00:00:00;;;;;;;14.18;5.57;;;;;;;-3.24;89.79;97734.06;5022989;28;20046;-64
2022/01/07 00:02:27;;;;;;;12.30;6.00;;;;;;;-3.37;89.26;97730.00;5017121;28;20034;-63
2022/01/07 00:04:54;;;;;;;12.18;5.53;;;;;;;-3.39;88.88;97726.69;5012995;28;20124;-63
2022/01/07 00:07:20;;;;;;;9.70;5.07;;;;;;;-3.38;89.29;97724.84;5011824;28;20057;-63
2022/01/07 00:09:47;;;;;;;11.40;5.88;;;;;;;-3.40;89.08;97723.19;5008679;28;20037;-63
2022/01/07 00:12:17;;;;;;;10.65;5.80;;;;;;;-3.38;89.99;97715.09;5008386;28;20041;-62
2022/01/07 00:14:43;;;;;;;11.85;4.97;;;;;;;-3.53;88.02;97722.75;5018197;28;20049;-62
2022/01/07 00:17:10;;;;;;;12.07;5.15;;;;;;;-3.40;89.75;97723.19;5014105;28;20509;-63
2022/01/07 00:19:36;;;;;;;12.02;5.38;;;;;;;-3.50;89.04;97716.31;5006711;28;20104;-62
2022/01/07 00:22:03;;;;;;;11.65;5.50;;;;;;;-3.65;88.35;97708.91;5008242;28;20124;-62
2022/01/07 00:24:30;;;;;;;15.55;6.35;;;;;;;-3.38;89.60;97708.94;5008751;28;20041;-63
2022/01/07 00:26:57;;;;;;;11.68;5.18;;;;;;;-3.56;87.36;97705.38;5012980;28;20125;-63
2022/01/07 00:29:42;;;;;;;16.08;6.07;;;;;;;-3.36;89.82;97707.81;5008494;28;20100;-64
2022/01/07 00:32:10;;;;;;;20.83;6.97;;;;;;;-3.55;87.71;97696.44;5014138;28;20030;-63
2022/01/07 00:34:37;;;;;;;16.48;5.97;;;;;;;-3.69;88.33;97687.22;5008491;28;20482;-62
2022/01/07 00:37:03;;;;;;;14.73;5.90;;;;;;;-3.64;89.03;97678.81;5008022;28;20045;-63
2022/01/07 00:39:31;;;;;;;15.27;6.13;;;;;;;-3.74;88.92;97681.56;5012898;28;20103;-63
2022/01/07 00:41:58;;;;;;;19.38;7.22;;;;;;;-3.58;89.69;97687.97;5008086;28;20572;-63
2022/01/07 00:44:25;;;;;;;16.85;7.15;;;;;;;-3.60;89.44;97690.78;5010547;28;20052;-63
2022/01/07 00:46:51;;;;;;;17.58;7.10;;;;;;;-3.57;89.92;97694.94;5016882;28;20046;-63
2022/01/07 00:49:21;;;;;;;18.10;8.05;;;;;;;-3.57;88.53;97697.56;5008191;28;20049;-63
2022/01/07 00:51:51;;;;;;;17.92;6.38;;;;;;;-3.67;88.68;97693.19;5007507;28;20038;-63
2022/01/07 00:54:18;;;;;;;17.67;6.65;;;;;;;-3.64;89.15;97688.56;5010750;28;20038;-63
2022/01/07 00:56:45;;;;;;;16.90;7.13;;;;;;;-3.86;87.88;97685.41;5024265;28;20455;-63
2022/01/07 00:59:12;;;;;;;14.88;6.60;;;;;;;-3.96;87.82;97681.03;5014274;28;20056;-63
2022/01/07 01:01:38;;;;;;;20.38;7.43;;;;;;;-4.13;88.17;97676.59;5019803;28;20047;-63
2022/01/07 01:04:05;;;;;;;16.73;6.97;;;;;;;-4.06;90.26;97670.53;5007623;28;20065;-62
2022/01/07 01:06:33;;;;;;;21.65;6.78;;;;;;;-4.09;88.83;97670.81;5021070;28;20050;-63
2022/01/07 01:09:01;;;;;;;14.70;6.03;;;;;;;-4.00;89.42;97668.25;5006475;28;20050;-63
2022/01/07 01:11:27;;;;;;;10.30;4.85;;;;;;;-3.76;89.83;97666.81;5006775;28;20077;-63
2022/01/07 01:13:54;;;;;;;12.40;4.82;;;;;;;-3.51;89.88;97665.19;5010452;28;20413;-63
2022/01/07 01:16:20;;;;;;;12.25;5.68;;;;;;;-3.61;88.19;97662.63;5006930;28;20611;-63
2022/01/07 01:18:47;;;;;;;16.10;5.82;;;;;;;-3.84;88.16;97665.75;5022325;28;20046;-63
2022/01/07 01:21:14;;;;;;;17.40;5.78;;;;;;;-3.83;88.34;97659.47;5013488;28;20067;-63
2022/01/07 01:23:44;;;;;;;10.38;5.13;;;;;;;-3.91;88.63;97656.75;5006981;28;20053;-64
2022/01/07 01:26:12;;;;;;;9.88;5.22;;;;;;;-4.18;87.50;97663.81;5007959;28;20092;-63
2022/01/07 01:28:40;;;;;;;15.68;5.40;;;;;;;-4.40;88.59;97655.31;5006818;28;20119;-64
2022/01/07 01:31:07;;;;;;;14.82;4.90;;;;;;;-4.42;89.23;97657.31;5006814;28;20038;-62
2022/01/07 01:33:33;;;;;;;10.82;5.30;;;;;;;-4.32;89.86;97659.84;5013107;28;20445;-62
2022/01/07 01:36:00;;;;;;;12.23;5.03;;;;;;;-4.14;90.13;97657.22;5006621;28;20053;-63
2022/01/07 01:38:30;;;;;;;15.75;5.75;;;;;;;-4.06;89.85;97646.72;5016204;28;20068;-63
2022/01/07 01:40:57;;;;;;;7.30;4.85;;;;;;;-4.07;89.70;97646.88;5020397;28;20041;-63
2022/01/07 01:43:24;;;;;;;9.10;4.57;;;;;;;-4.06;89.61;97646.72;5014939;28;20045;-62
2022/01/07 01:45:51;;;;;;;8.93;4.55;;;;;;;-3.94;89.70;97646.50;5022239;28;20041;-62
2022/01/07 01:48:19;;;;;;;16.35;5.28;;;;;;;-3.90;89.46;97639.06;5007726;28;20076;-62
2022/01/07 01:50:48;;;;;;;14.63;6.30;;;;;;;-3.93;89.40;97632.28;5006929;28;20502;-66
2022/01/07 01:53:16;;;;;;;12.90;5.45;;;;;;;-3.97;89.36;97630.94;5008707;28;21893;-63
2022/01/07 01:55:44;;;;;;;12.68;4.85;;;;;;;-3.90;89.52;97631.16;5023318;28;20629;-63
2022/01/07 01:58:11;;;;;;;10.65;4.95;;;;;;;-3.91;89.40;97622.38;5008233;28;20125;-63
2022/01/07 02:00:38;;;;;;;6.75;4.35;;;;;;;-3.92;89.34;97629.50;5029255;28;20045;-63
2022/01/07 02:03:05;;;;;;;10.98;4.65;;;;;;;-3.95;89.61;97632.44;5023806;28;20492;-62
2022/01/07 02:05:33;;;;;;;6.88;4.60;;;;;;;-3.98;89.09;97626.63;5016257;28;20045;-62
2022/01/07 02:07:59;;;;;;;7.80;4.05;;;;;;;-3.89;89.47;97628.34;5036279;28;20600;-62
2022/01/07 02:10:27;;;;;;;10.95;4.93;;;;;;;-3.77;89.01;97625.47;5007961;28;20034;-62
2022/01/07 02:12:53;;;;;;;9.38;4.72;;;;;;;-3.82;88.89;97616.19;5006144;28;20092;-63
2022/01/07 02:15:20;;;;;;;6.55;3.58;;;;;;;-3.76;88.80;97620.00;5016628;28;20053;-63
2022/01/07 02:17:49;;;;;;;7.35;4.47;;;;;;;-3.72;88.81;97618.69;5020285;28;20046;-63
2022/01/07 02:20:22;;;;;;;10.65;5.20;;;;;;;-3.47;88.42;97613.56;5012393;28;20042;-63
2022/01/07 02:22:49;;;;;;;8.18;4.25;;;;;;;-3.30;87.16;97614.53;5005977;28;20046;-63
2022/01/07 02:25:15;;;;;;;9.98;4.10;;;;;;;-3.22;86.95;97607.59;5004773;28;20052;-62
2022/01/07 02:27:44;;;;;;;8.40;5.10;;;;;;;-3.22;86.55;97607.59;5034197;28;20539;-62
2022/01/07 02:30:13;;;;;;;7.32;3.65;;;;;;;-3.19;86.54;97602.81;5010071;28;20050;-64
2022/01/07 02:32:40;;;;;;;8.90;5.38;;;;;;;-3.16;86.19;97601.66;5015674;28;20486;-62
2022/01/07 02:35:08;;;;;;;10.07;5.40;;;;;;;-3.16;85.84;97604.31;5006311;28;20084;-62
2022/01/07 02:37:36;;;;;;;10.98;5.13;;;;;;;-3.27;86.42;97608.88;5004065;28;20050;-63
2022/01/07 02:40:04;;;;;;;9.23;4.85;;;;;;;-3.39;87.08;97607.53;5015261;28;20049;-63
2022/01/07 02:42:31;;;;;;;12.18;5.25;;;;;;;-3.37;86.79;97600.22;5007967;28;20042;-63
2022/01/07 02:44:57;;;;;;;9.90;4.20;;;;;;;-3.43;86.85;97603.53;5007824;28;20046;-63
2022/01/07 02:47:30;;;;;;;10.88;4.97;;;;;;;-3.38;86.45;97603.03;5006290;28;20049;-63
2022/01/07 02:50:04;;;;;;;13.32;5.10;;;;;;;-3.38;86.08;97601.22;5010079;28;20045;-62
2022/01/07 02:52:31;;;;;;;7.40;3.63;;;;;;;-3.37;86.17;97600.22;5008728;28;20049;-62
2022/01/07 02:54:58;;;;;;;8.75;4.75;;;;;;;-3.40;86.17;97598.72;5006352;28;20046;-62
2022/01/07 02:57:24;;;;;;;7.20;3.85;;;;;;;-3.40;85.93;97597.91;5020050;28;20034;-63
2022/01/07 02:59:51;;;;;;;8.02;4.25;;;;;;;-3.42;86.09;97598.03;5015463;28;20049;-62
2022/01/07 03:02:18;;;;;;;8.93;3.90;;;;;;;-3.36;85.53;97596.59;5021157;28;20516;-62
2022/01/07 03:04:45;;;;;;;9.40;4.65;;;;;;;-3.36;85.52;97591.28;5007364;28;20038;-62
2022/01/07 03:07:11;;;;;;;5.85;3.13;;;;;;;-3.42;85.48;97591.94;5022331;28;20042;-63
2022/01/07 03:09:38;;;;;;;12.55;3.78;;;;;;;-3.41;85.36;97596.25;5005319;28;20058;-63
2022/01/07 03:12:06;;;;;;;9.50;3.80;;;;;;;-3.35;84.88;97600.09;5005597;28;20042;-63
2022/01/07 03:14:32;;;;;;;11.63;3.33;;;;;;;-3.26;84.55;97599.13;5005139;28;20441;-63
2022/01/07 03:16:59;;;;;;;5.80;3.20;;;;;;;-3.18;84.03;97598.34;5007543;28;20104;-62
2022/01/07 03:19:26;;;;;;;7.80;3.00;;;;;;;-3.13;83.57;97604.00;5005860;28;20053;-63
2022/01/07 03:21:52;;;;;;;11.10;3.65;;;;;;;-3.15;83.50;97604.16;5005052;28;20046;-63
2022/01/07 03:24:19;;;;;;;7.88;3.72;;;;;;;-3.24;83.83;97604.28;5009296;28;20232;-63
2022/01/07 03:26:45;;;;;;;7.47;3.00;;;;;;;-3.19;83.47;97602.81;5014313;28;20038;-62
2022/01/07 03:29:12;;;;;;;8.38;3.10;;;;;;;-3.16;83.19;97604.31;5008462;28;20096;-63
2022/01/07 03:31:39;;;;;;;8.75;3.55;;;;;;;-3.19;83.41;97604.63;5012981;28;20420;-63
2022/01/07 03:34:05;;;;;;;6.55;3.83;;;;;;;-3.23;83.75;97597.97;5017424;28;20054;-63
2022/01/07 03:36:32;;;;;;;6.85;3.08;;;;;;;-3.14;83.38;97599.69;5008768;28;20044;-63
2022/01/07 03:39:01;;;;;;;7.45;3.03;;;;;;;-3.11;82.77;97599.38;5009246;28;20046;-62
2022/01/07 03:41:28;;;;;;;6.22;3.35;;;;;;;-3.28;83.10;97590.53;5017317;28;20052;-62
2022/01/07 03:43:54;;;;;;;6.85;3.70;;;;;;;-3.38;83.74;97598.59;5023515;28;20038;-62
2022/01/07 03:46:21;;;;;;;10.15;2.67;;;;;;;-3.54;84.31;97602.78;5015469;28;20041;-63
2022/01/07 03:48:48;;;;;;;6.90;3.53;;;;;;;-3.45;84.13;97597.53;5009168;28;20065;-62
2022/01/07 03:51:14;;;;;;;10.25;3.58;;;;;;;-3.44;83.87;97596.53;5007692;28;20622;-63
2022/01/07 03:53:41;;;;;;;6.22;3.05;;;;;;;-3.62;84.83;97588.69;5010365;28;20042;-63
2022/01/07 03:56:10;;;;;;;8.60;3.00;;;;;;;-3.65;85.52;97592.44;5025372;28;20049;-63
2022/01/07 03:58:36;;;;;;;16.20;4.43;;;;;;;-3.76;84.76;97582.94;5012653;28;20045;-63
2022/01/07 04:01:03;;;;;;;11.05;4.20;;;;;;;-3.74;85.43;97583.63;5007564;28;20060;-63
2022/01/07 04:03:30;;;;;;;9.00;4.13;;;;;;;-3.65;84.42;97579.22;5026703;28;20038;-62
2022/01/07 04:05:56;;;;;;;9.70;3.95;;;;;;;-3.72;85.33;97581.66;5023809;28;20500;-62
2022/01/07 04:08:23;;;;;;;9.63;3.75;;;;;;;-3.74;85.38;97588.09;5028396;28;20045;-63
2022/01/07 04:10:50;;;;;;;16.23;3.47;;;;;;;-3.74;85.17;97588.09;5025531;28;20037;-63
2022/01/07 04:13:16;;;;;;;6.93;3.53;;;;;;;-3.66;84.56;97580.22;5025859;28;20048;-62
2022/01/07 04:15:43;;;;;;;11.10;4.05;;;;;;;-3.66;84.66;97580.22;5026671;28;20119;-63
2022/01/07 04:18:10;;;;;;;12.35;3.88;;;;;;;-3.79;85.22;97591.22;5023394;28;20497;-62
2022/01/07 04:20:37;;;;;;;7.55;3.45;;;;;;;-3.75;84.85;97595.22;5010179;28;20041;-62
2022/01/07 04:23:07;;;;;;;7.22;3.33;;;;;;;-3.63;84.57;97600.22;5027132;28;20040;-62
2022/01/07 04:25:34;;;;;;;6.53;2.67;;;;;;;-3.49;83.97;97604.13;5019557;28;20045;-62
2022/01/07 04:28:04;;;;;;;6.07;3.58;;;;;;;-3.56;84.14;97609.22;5008424;28;20045;-62
2022/01/07 04:30:34;;;;;;;7.07;3.35;;;;;;;-3.54;83.86;97600.13;5007721;28;20057;-63
2022/01/07 04:33:03;;;;;;;9.32;3.80;;;;;;;-3.55;84.42;97595.00;5023309;28;20528;-62
2022/01/07 04:35:34;;;;;;;10.55;4.05;;;;;;;-3.59;84.41;97598.94;5007816;28;20056;-63
2022/01/07 04:38:03;;;;;;;6.20;2.88;;;;;;;-3.63;84.60;97601.06;5007937;28;20515;-66
2022/01/07 04:40:30;;;;;;;7.07;2.80;;;;;;;-3.56;84.55;97596.84;5026169;28;20675;-65
2022/01/07 04:42:56;;;;;;;5.28;2.38;;;;;;;-3.38;83.40;97603.88;5012583;28;20679;-65
2022/01/07 04:45:23;;;;;;;5.13;2.40;;;;;;;-3.28;83.27;97606.41;5022646;28;20061;-65
2022/01/07 04:47:50;;;;;;;5.57;2.53;;;;;;;-3.26;82.98;97607.06;5007712;28;20046;-65
2022/01/07 04:50:18;;;;;;;4.95;2.58;;;;;;;-3.24;83.18;97606.91;5022719;28;20046;-65
2022/01/07 04:52:45;;;;;;;8.85;3.03;;;;;;;-3.20;82.86;97606.47;5008480;28;20037;-65
2022/01/07 04:55:27;;;;;;;6.53;2.40;;;;;;;-3.13;82.65;97591.56;5022672;28;20072;-66
2022/01/07 04:57:53;;;;;;;6.22;2.50;;;;;;;-3.07;82.30;97594.56;5013871;28;20484;-65
2022/01/07 05:00:22;;;;;;;5.22;2.40;;;;;;;-3.13;83.60;97601.34;5023093;28;20574;-66
2022/01/07 05:02:49;;;;;;;7.95;3.08;;;;;;;-3.21;82.83;97606.63;5022918;28;20038;-65
2022/01/07 05:05:16;;;;;;;10.40;3.03;;;;;;;-3.51;83.69;97599.00;5028728;28;20668;-65
2022/01/07 05:07:43;;;;;;;12.07;3.58;;;;;;;-3.61;84.73;97591.16;5025367;28;20037;-65
2022/01/07 05:10:12;;;;;;;10.68;3.78;;;;;;;-3.70;85.27;97598.22;5011200;28;20049;-65
2022/01/07 05:12:39;;;;;;;7.28;3.10;;;;;;;-3.75;85.49;97594.38;5019726;28;20053;-65
2022/01/07 05:15:06;;;;;;;10.23;4.00;;;;;;;-3.71;85.58;97596.56;5018361;28;20044;-66
2022/01/07 05:17:33;;;;;;;9.30;4.13;;;;;;;-3.60;85.72;97594.63;5017329;28;20092;-65
2022/01/07 05:20:00;;;;;;;5.13;2.60;;;;;;;-3.60;85.78;97592.84;5013053;28;20046;-65
2022/01/07 05:22:28;;;;;;;8.57;3.53;;;;;;;-3.48;85.08;97595.19;5006997;28;20053;-65
2022/01/07 05:24:54;;;;;;;8.07;3.63;;;;;;;-3.50;85.44;97590.09;5007573;28;20042;-66
2022/01/07 05:27:21;;;;;;;5.82;3.28;;;;;;;-3.46;85.20;97586.09;5006322;28;20050;-66
2022/01/07 05:29:48;;;;;;;5.10;3.30;;;;;;;-3.51;85.34;97583.09;5007279;28;20053;-66
2022/01/07 05:32:14;;;;;;;10.27;3.50;;;;;;;-3.42;85.55;97582.16;5016234;28;20041;-65
2022/01/07 05:34:41;;;;;;;7.85;3.10;;;;;;;-3.33;85.31;97579.56;5008025;28;20049;-65
2022/01/07 05:37:10;;;;;;;14.60;5.05;;;;;;;-3.24;84.76;97580.44;5007228;28;20536;-65
2022/01/07 05:39:37;;;;;;;6.45;3.22;;;;;;;-3.23;85.05;97574.16;5016135;28;20042;-65
2022/01/07 05:42:05;;;;;;;8.65;4.00;;;;;;;-3.19;84.99;97576.34;5023990;28;20065;-66
2022/01/07 05:44:32;;;;;;;9.35;3.83;;;;;;;-3.25;85.24;97571.66;5010251;28;20038;-65
2022/01/07 05:46:59;;;;;;;8.25;3.80;;;;;;;-3.25;85.49;97569.00;5006416;28;20536;-65
2022/01/07 05:49:25;;;;;;;9.60;4.38;;;;;;;-3.19;85.60;97568.38;5014110;28;20641;-65
2022/01/07 05:51:52;;;;;;;9.52;4.15;;;;;;;-3.22;85.82;97562.56;5015539;28;20048;-65
2022/01/07 05:54:18;;;;;;;7.50;4.28;;;;;;;-3.18;85.77;97569.19;5006650;28;20071;-66
2022/01/07 05:56:45;;;;;;;7.55;3.95;;;;;;;-3.13;85.62;97570.38;5020584;28;20045;-66
2022/01/07 05:59:12;;;;;;;9.77;5.18;;;;;;;-3.10;85.66;97569.22;5006578;28;20038;-66
2022/01/07 06:01:38;;;;;;;8.10;4.75;;;;;;;-3.02;85.16;97560.50;5014377;28;20279;-66
2022/01/07 06:04:05;;;;;;;6.70;3.88;;;;;;;-2.89;84.65;97554.72;5014156;28;20042;-65
2022/01/07 06:06:32;;;;;;;6.97;4.30;;;;;;;-2.88;84.49;97559.03;5018883;28;20050;-65
2022/01/07 06:08:59;;;;;;;9.07;4.68;;;;;;;-2.88;84.56;97556.38;5006640;28;20504;-65
2022/01/07 06:11:25;;;;;;;8.05;3.85;;;;;;;-2.87;84.42;97553.56;5010367;28;20065;-65
2022/01/07 06:13:52;;;;;;;9.85;4.25;;;;;;;-2.90;84.09;97555.72;5006649;28;20034;-65
2022/01/07 06:16:18;;;;;;;7.43;4.10;;;;;;;-2.91;84.59;97562.84;5009368;28;20092;-65
2022/01/07 06:18:54;;;;;;;7.55;4.32;;;;;;;-2.95;84.29;97560.69;5018305;28;20041;-65
2022/01/07 06:21:21;;;;;;;13.70;5.85;;;;;;;-2.93;83.66;97558.69;5007762;28;20050;-65
2022/01/07 06:23:49;;;;;;;7.93;4.75;;;;;;;-3.00;84.07;97547.91;5013934;28;20037;-66
2022/01/07 06:26:17;;;;;;;3.83;2.55;;;;;;;-3.04;84.30;97551.88;5014030;28;20046;-65
2022/01/07 06:28:44;;;;;;;9.93;4.88;;;;;;;-3.08;84.09;97550.53;5014324;28;20038;-65
2022/01/07 06:31:10;;;;;;;10.80;4.90;;;;;;;-3.08;84.44;97543.44;5018581;28;20165;-65
2022/01/07 06:33:37;;;;;;;7.18;3.45;;;;;;;-3.01;83.84;97543.59;5019965;28;20077;-65
2022/01/07 06:36:04;;;;;;;7.28;3.28;;;;;;;-3.02;84.11;97539.31;5011262;28;20034;-65
2022/01/07 06:38:31;;;;;;;8.43;4.53;;;;;;;-3.05;83.96;97553.72;5012350;28;20042;-65
2022/01/07 06:40:57;;;;;;;8.43;4.47;;;;;;;-3.05;84.40;97550.22;5005998;28;20544;-65
2022/01/07 06:43:24;;;;;;;6.03;3.50;;;;;;;-2.97;83.79;97552.91;5005944;28;20042;-66
2022/01/07 06:45:50;;;;;;;13.75;6.72;;;;;;;-3.01;83.49;97552.41;5013865;28;20505;-66
2022/01/07 06:48:18;;;;;;;8.25;3.05;;;;;;;-3.02;84.03;97550.72;5005569;28;20046;-66
2022/01/07 06:50:45;;;;;;;6.88;3.50;;;;;;;-2.94;83.83;97543.78;5017313;28;20129;-65
2022/01/07 06:53:12;;;;;;;11.18;6.20;;;;;;;-2.95;83.83;97544.78;5009191;28;20037;-66
2022/01/07 06:55:57;;;;;;;8.82;4.18;;;;;;;-3.02;84.20;97541.97;5022652;28;20555;-65
2022/01/07 06:58:24;;;;;;;7.65;3.55;;;;;;;-2.98;84.51;97542.47;5017597;28;20069;-65
2022/01/07 07:00:51;;;;;;;11.60;6.43;;;;;;;-2.99;84.26;97538.16;5010780;28;20046;-66
2022/01/07 07:03:18;;;;;;;10.20;5.20;;;;;;;-2.93;83.93;97542.78;5025496;28;20497;-65
2022/01/07 07:05:45;;;;;;;9.00;4.40;;;;;;;-2.92;83.94;97529.38;5028397;28;20420;-65
2022/01/07 07:08:11;;;;;;;15.35;5.80;;;;;;;-2.94;84.44;97528.75;5019889;28;20037;-66
2022/01/07 07:10:38;;;;;;;9.95;5.22;;;;;;;-2.90;84.31;97529.22;5012122;28;20137;-65
2022/01/07 07:13:05;;;;;;;21.67;10.52;;;;;;;-2.92;84.50;97524.09;5009009;28;20038;-66
2022/01/07 07:15:31;;;;;;;8.15;4.07;;;;;;;-2.85;84.17;97523.47;5009559;28;20045;-66
2022/01/07 07:17:58;;;;;;;9.30;4.20;;;;;;;-2.89;84.38;97518.47;5013197;28;20173;-65
2022/01/07 07:20:25;;;;;;;8.30;4.57;;;;;;;-2.89;84.58;97517.63;5017946;28;20045;-66
2022/01/07 07:22:52;;;;;;;10.27;4.70;;;;;;;-2.82;84.63;97512.50;5009626;28;20049;-65
2022/01/07 07:25:22;;;;;;;14.15;6.00;;;;;;;-2.81;84.77;97519.47;5013138;28;20497;-66
2022/01/07 07:27:50;;;;;;;10.53;5.47;;;;;;;-2.89;85.02;97515.81;5020437;28;20080;-66
2022/01/07 07:30:17;;;;;;;10.98;4.45;;;;;;;-2.84;84.72;97515.31;5018874;28;20296;-66
2022/01/07 07:32:44;;;;;;;16.83;8.15;;;;;;;-2.79;84.85;97506.88;5013832;28;20140;-65
2022/01/07 07:37:48;;;;;;;12.45;4.75;;;;;;;-2.54;83.78;97504.28;5016393;28;20042;-64
2022/01/07 07:40:16;;;;;;;12.00;5.28;;;;;;;-2.64;84.02;97509.72;5036245;28;20077;-65
2022/01/07 07:42:43;;;;;;;10.45;4.15;;;;;;;-2.59;83.66;97503.94;5017879;28;20061;-64
2022/01/07 07:45:16;;;;;;;14.65;6.43;;;;;;;-2.64;83.95;97497.31;5016236;28;20349;-65
2022/01/07 07:47:43;;;;;;;14.00;5.20;;;;;;;-2.54;83.89;97504.28;5018885;28;20136;-64
2022/01/07 07:50:14;;;;;;;12.65;6.00;;;;;;;-2.54;83.52;97507.75;5013491;28;20037;-64
2022/01/07 07:52:41;;;;;;;14.48;5.68;;;;;;;-2.44;83.13;97502.28;5014537;28;20046;-65
2022/01/07 07:55:08;;;;;;;12.38;5.50;;;;;;;-2.47;82.99;97504.44;5025000;28;20052;-65
2022/01/07 07:57:35;;;;;;;8.80;4.85;;;;;;;-2.46;84.45;97490.19;5020964;28;20060;-64
2022/01/07 08:00:05;;;;;;;8.85;4.50;;;;;;;-2.37;83.78;97483.88;5026589;28;20671;-64
2022/01/07 08:02:39;;;;;;;13.52;6.25;;;;;;;-2.36;83.06;97489.03;5040562;28;20608;-64
2022/01/07 08:05:07;;;;;;;12.73;4.55;;;;;;;-2.24;83.89;97481.53;5020602;28;20434;-64
2022/01/07 08:07:34;;;;;;;12.85;4.95;;;;;;;-2.24;83.30;97481.53;5019595;28;20045;-64
2022/01/07 08:10:00;;;;;;;11.68;4.97;;;;;;;-2.22;82.75;97478.72;5012476;28;20049;-65
2022/01/07 08:12:50;;;;;;;10.40;4.97;;;;;;;-2.38;82.68;97485.72;5035574;28;20045;-65
2022/01/07 08:18:00;;;;;;;13.77;5.97;;;;;;;-2.28;82.57;97482.06;5027391;28;20295;-64
2022/01/07 08:20:27;;;;;;;11.43;5.13;;;;;;;-2.23;82.70;97475.25;5034071;28;20041;-65
2022/01/07 08:22:55;;;;;;;12.20;5.40;;;;;;;-2.19;82.32;97473.09;5008067;28;20537;-65
2022/01/07 08:25:23;;;;;;;11.70;6.05;;;;;;;-2.26;82.63;97478.25;4990803;28;20053;-64
2022/01/07 08:27:50;;;;;;;12.32;6.68;;;;;;;-2.31;83.43;97477.91;5019742;28;20053;-62
2022/01/07 08:30:24;;;;;;;11.95;5.43;;;;;;;-2.19;83.05;97475.75;5020640;28;20053;-62
2022/01/07 08:35:37;;;;;;;13.45;5.13;;;;;;;-1.90;82.01;97478.84;5012589;28;20038;-62
2022/01/07 08:38:05;;;;;;;11.77;4.93;;;;;;;-1.81;81.36;97469.84;5011804;28;20529;-64
2022/01/07 08:40:33;;;;;;;14.00;6.72;;;;;;;-1.84;81.46;97480.84;5022585;28;20048;-64
2022/01/07 08:43:00;;;;;;;10.70;5.47;;;;;;;-1.95;82.18;97479.38;5022114;28;20045;-64
2022/01/07 08:45:27;;;;;;;11.18;6.32;;;;;;;-1.92;82.03;97467.59;5015401;28;20049;-64
2022/01/07 08:47:55;;;;;;;11.13;5.40;;;;;;;-2.00;82.57;97476.38;5015325;28;20491;-64
2022/01/07 08:50:23;;;;;;;11.15;5.30;;;;;;;-1.90;82.56;97470.88;5023318;28;20048;-69
2022/01/07 08:52:50;;;;;;;11.48;4.63;;;;;;;-1.97;82.07;97471.56;5022581;28;20112;-66
2022/01/07 08:55:17;;;;;;;10.93;5.38;;;;;;;-1.99;82.33;97465.59;5014024;28;20033;-62
2022/01/07 08:57:44;;;;;;;11.95;6.20;;;;;;;-1.81;81.44;97455.78;5026419;28;20647;-62
2022/01/07 09:00:12;;;;;;;9.05;5.25;;;;;;;-1.78;81.15;97450.94;5020704;28;20118;-61
2022/01/07 09:02:39;;;;;;;13.43;6.53;;;;;;;-1.87;82.02;97447.50;5013252;28;20125;-65
2022/01/07 09:05:07;;;;;;;9.35;5.13;;;;;;;-1.67;81.02;97452.41;5016589;28;20661;-65
2022/01/07 09:07:34;;;;;;;10.80;5.18;;;;;;;-1.55;80.27;97450.19;5020638;28;20041;-64
2022/01/07 09:10:02;;;;;;;9.90;5.43;;;;;;;-1.63;81.08;97450.22;5022898;28;20045;-65
2022/01/07 09:12:29;;;;;;;7.22;3.67;;;;;;;-1.57;81.00;97453.03;5007394;28;20053;-64
2022/01/07 09:14:55;;;;;;;11.40;5.95;;;;;;;-1.52;80.34;97454.34;5017426;28;20038;-64
2022/01/07 09:17:22;;;;;;;12.05;5.47;;;;;;;-1.50;80.25;97447.88;5022657;28;20044;-64
2022/01/07 09:19:49;;;;;;;11.13;5.57;;;;;;;-1.47;80.77;97444.03;5009372;28;20057;-65
2022/01/07 09:22:16;;;;;;;7.30;3.60;;;;;;;-1.15;79.56;97449.34;5007358;28;20046;-65
2022/01/07 09:24:43;;;;;;;8.65;4.07;;;;;;;-1.23;79.17;97445.72;5022841;28;20042;-65
2022/01/07 09:27:10;;;;;;;13.23;5.50;;;;;;;-1.21;79.23;97445.56;5009849;28;20075;-64
2022/01/07 09:29:37;;;;;;;6.78;3.83;;;;;;;-1.26;79.20;97440.75;5024136;28;20132;-64
2022/01/07 09:32:05;;;;;;;10.23;4.35;;;;;;;-1.16;79.53;97447.69;5016779;28;20045;-64
2022/01/07 09:34:33;;;;;;;11.93;4.63;;;;;;;-1.21;78.65;97446.38;5022636;28;20046;-64
2022/01/07 09:37:03;;;;;;;9.07;4.25;;;;;;;-1.12;78.81;97438.34;5016422;28;20046;-65
2022/01/07 09:39:32;;;;;;;10.18;5.07;;;;;;;-1.13;78.68;97439.38;5018013;28;20049;-63
2022/01/07 09:42:00;;;;;;;9.80;5.85;;;;;;;-1.17;78.56;97441.56;5023528;28;20095;-64
2022/01/07 09:44:28;;;;;;;10.95;5.38;;;;;;;-1.17;78.94;97430.94;5020797;28;20519;-63
2022/01/07 09:46:55;;;;;;;9.40;4.05;;;;;;;-1.06;78.95;97438.47;5012819;28;20886;-63
2022/01/07 09:49:22;;;;;;;7.13;3.33;;;;;;;-0.93;78.37;97434.41;5021806;28;20041;-64
2022/01/07 09:51:49;;;;;;;11.38;4.82;;;;;;;-0.93;78.07;97434.41;5011285;28;20052;-64
2022/01/07 09:54:16;;;;;;;9.55;5.13;;;;;;;-0.89;78.07;97427.75;5017481;28;20248;-64
2022/01/07 09:56:43;;;;;;;10.27;4.85;;;;;;;-0.85;77.75;97438.88;5014316;28;20758;-63
2022/01/07 09:59:10;;;;;;;9.95;5.18;;;;;;;-0.87;78.19;97430.22;5020293;28;20049;-64
2022/01/07 10:01:57;;;;;;;9.68;4.93;;;;;;;-0.96;78.40;97426.81;5014555;28;20041;-63
2022/01/07 10:04:37;;;;;;;7.45;4.40;;;;;;;-1.03;79.12;97423.19;5020150;28;20049;-63
2022/01/07 10:07:17;;;;;;;10.20;4.68;;;;;;;-0.98;80.39;97421.69;5015500;28;20100;-63
2022/01/07 10:10:04;;;;;;;8.52;3.70;;;;;;;-0.73;78.41;97410.03;5008179;28;20056;-62
2022/01/07 10:12:33;;;;;;;11.30;4.90;;;;;;;-0.77;79.12;97403.41;5014068;28;20505;-61
2022/01/07 10:15:17;;;;;;;9.82;4.20;;;;;;;-0.71;79.22;97408.84;5020427;28;20560;-64
2022/01/07 10:17:55;;;;;;;8.68;3.78;;;;;;;-0.83;81.12;97394.31;5021815;28;20041;-63
2022/01/07 10:20:26;;;;;;;11.43;5.22;;;;;;;-0.89;80.43;97400.34;5017813;28;20080;-60
2022/01/07 10:22:58;;;;;;;7.88;3.78;;;;;;;-0.83;80.62;97405.78;5021339;28;20045;-62
2022/01/07 10:25:28;;;;;;;8.43;4.20;;;;;;;-0.96;80.92;97397.56;5022994;28;20068;-60
2022/01/07 10:28:06;;;;;;;9.82;4.03;;;;;;;-0.86;81.33;97398.16;5022320;28;20139;-62
2022/01/07 10:30:44;;;;;;;8.65;4.60;;;;;;;-0.97;83.15;97394.09;5023744;28;20056;-63
2022/01/07 10:33:23;;;;;;;9.82;4.55;;;;;;;-1.07;83.47;97393.50;5024443;28;20438;-62
2022/01/07 10:35:53;;;;;;;10.32;4.45;;;;;;;-1.07;83.70;97390.84;5019330;28;20041;-60
2022/01/07 10:38:24;;;;;;;10.20;4.55;;;;;;;-1.14;84.86;97382.72;5023720;28;20115;-62
2022/01/07 10:40:52;;;;;;;10.50;4.18;;;;;;;-1.01;84.90;97376.00;5022383;28;20045;-64
2022/01/07 10:43:25;;;;;;;11.23;4.68;;;;;;;-0.99;85.39;97374.81;5010119;28;20049;-63
2022/01/07 10:45:53;;;;;;;9.82;4.75;;;;;;;-0.83;85.48;97373.03;5022212;28;20041;-63
2022/01/07 10:48:23;;;;;;;10.98;5.43;;;;;;;-0.80;84.98;97368.19;5011039;28;20299;-63
2022/01/07 10:50:52;;;;;;;10.68;4.07;;;;;;;-0.68;84.26;97359.78;5036969;28;20052;-64
2022/01/07 10:53:29;;;;;;;7.72;3.95;;;;;;;-0.58;84.51;97364.84;5022914;28;20091;-63
2022/01/07 10:56:00;;;;;;;9.27;3.03;;;;;;;-0.63;82.67;97365.38;5023535;28;20533;-63
2022/01/07 10:58:27;;;;;;;7.25;2.58;;;;;;;-0.54;82.59;97358.16;5022164;28;20045;-62
2022/01/07 11:00:54;;;;;;;6.25;3.20;;;;;;;-0.55;83.35;97352.00;5019580;28;20068;-62
2022/01/07 11:03:21;;;;;;;7.63;2.67;;;;;;;-0.56;82.71;97358.34;5023654;28;20686;-63
2022/01/07 11:05:48;;;;;;;6.55;2.75;;;;;;;-0.55;82.87;97353.88;5025409;28;20045;-61
2022/01/07 11:08:16;;;;;;;6.70;2.83;;;;;;;-0.63;83.72;97346.75;5022404;28;20056;-62
2022/01/07 11:10:43;;;;;;;6.05;2.67;;;;;;;-0.56;83.43;97352.19;5023326;28;20045;-62
2022/01/07 11:13:10;;;;;;;8.93;3.22;;;;;;;-0.59;84.01;97357.88;5023201;28;20087;-62
2022/01/07 11:15:38;;;;;;;7.15;3.20;;;;;;;-0.69;84.54;97345.69;5027853;28;20558;-61
2022/01/07 11:18:05;;;;;;;5.65;3.13;;;;;;;-0.59;84.46;97353.38;5017049;28;20579;-64
2022/01/07 11:20:32;;;;;;;8.73;3.25;;;;;;;-0.46;84.53;97346.59;5023516;28;20050;-62
2022/01/07 11:22:59;;;;;;;7.88;2.67;;;;;;;-0.34;84.64;97349.66;5021689;28;20048;-62
2022/01/07 11:25:33;;;;;;;9.40;3.78;;;;;;;-0.32;83.43;97337.00;5021193;28;20069;-61
2022/01/07 11:28:00;;;;;;;6.55;3.28;;;;;;;-0.29;82.99;97336.63;5034843;28;20389;-62
2022/01/07 11:30:35;;;;;;;6.45;4.07;;;;;;;-0.22;81.94;97331.41;5004773;28;20049;-61
2022/01/07 11:33:16;;;;;;;9.18;4.65;;;;;;;-0.25;82.30;97331.75;5032669;28;20068;-61
2022/01/07 11:35:45;;;;;;;9.63;4.72;;;;;;;-0.31;81.92;97330.66;5019627;28;20041;-60
2022/01/07 11:38:30;;;;;;;8.50;4.15;;;;;;;-0.27;81.57;97330.13;5031314;28;20049;-61
2022/01/07 11:40:57;;;;;;;10.00;5.97;;;;;;;-0.34;82.14;97328.38;5017135;28;20140;-64